Delta Virtual Airport Information Service

Jackson Hole Airport

ICAO: KJAC Country: United States
Latitude: 43.6073 Longitude: -110.737
Latest Arrival : DAL1150 (B) (KSLC-KJAC) Latest Departure : DAL1151 (B) (KJAC-KSLC)


WX CaptureLIVE
Data provided by noaa.gov | Fetched at 13:53:54

METAR : KJAC 281756Z 00000KT 10SM CLR 08/M04 A3052 RMK AO2 SLP351 T00831044 10083 21067 58007

TAF : KJAC 281728Z 2818/2918 VRB04KT P6SM SKC FM282100 28008KT P6SM SKC FM290200 VRB03KT P6SM SKC FM291600 20006KT P6SM SKC


Runway Data for KJAC
Data provided by openaviationdata.com

Runway ID Mag Var Hdg Length Elevation Surface ILS Freq ILS Id ILS Slope
1 13 6298 ft 6449 ft Asphalt -- -- --
19 13 186° 6298 ft 6449 ft Asphalt 109.1 IJAC 3

Jackson Hole Airport, United States
Use only for reference purposes



Not for navigational purposes.